createdAt,value
2022-10-28T00:01:18.295Z,2.67
2022-10-28T00:03:49.440Z,2.92
2022-10-28T00:06:20.458Z,3.05
2022-10-28T00:08:48.478Z,3.83
2022-10-28T00:11:18.502Z,2.53
2022-10-28T00:13:46.333Z,2.30
2022-10-28T00:16:22.294Z,3.00
2022-10-28T00:18:52.598Z,2.67
2022-10-28T00:21:26.096Z,2.65
2022-10-28T00:23:54.111Z,3.33
2022-10-28T00:26:24.854Z,2.75
2022-10-28T00:28:58.847Z,3.25
2022-10-28T00:31:28.025Z,3.42
2022-10-28T00:33:56.251Z,2.92
2022-10-28T00:36:27.966Z,2.25
2022-10-28T00:38:56.803Z,2.70
2022-10-28T00:41:28.499Z,2.42
2022-10-28T00:44:01.982Z,2.30
2022-10-28T00:46:44.539Z,3.50
2022-10-28T00:49:16.921Z,2.70
2022-10-28T00:51:47.083Z,2.35
2022-10-28T00:54:16.014Z,2.05
2022-10-28T00:56:46.624Z,2.53
2022-10-28T00:59:21.694Z,2.50
2022-10-28T01:01:49.405Z,2.40
2022-10-28T01:04:17.308Z,2.17
2022-10-28T01:06:46.369Z,2.08
2022-10-28T01:09:13.962Z,2.75
2022-10-28T01:12:05.283Z,2.30
2022-10-28T01:15:03.373Z,2.78
2022-10-28T01:17:45.065Z,1.73
2022-10-28T01:20:41.588Z,2.17
2022-10-28T01:23:25.511Z,2.22
2022-10-28T01:26:31.895Z,2.70
2022-10-28T01:29:26.909Z,1.98
2022-10-28T01:32:11.390Z,2.22
2022-10-28T01:35:01.499Z,2.17
2022-10-28T01:37:36.260Z,2.30
2022-10-28T01:40:13.698Z,2.40
2022-10-28T01:42:59.883Z,1.88
2022-10-28T01:45:48.813Z,2.20
2022-10-28T01:48:21.458Z,2.40
2022-10-28T01:51:01.777Z,1.80
2022-10-28T01:53:33.971Z,2.08
2022-10-28T01:56:05.638Z,1.70
2022-10-28T01:58:34.079Z,2.05
2022-10-28T02:01:05.052Z,1.70
2022-10-28T02:03:32.628Z,2.33
2022-10-28T02:06:03.217Z,2.28
2022-10-28T02:08:53.192Z,2.45
2022-10-28T02:11:46.019Z,2.13
2022-10-28T02:14:29.307Z,2.78
2022-10-28T02:17:21.372Z,1.90
2022-10-28T02:20:08.867Z,1.83
2022-10-28T02:23:21.091Z,2.22
2022-10-28T02:25:54.959Z,1.88
2022-10-28T02:28:56.020Z,1.50
2022-10-28T02:31:31.886Z,1.80
2022-10-28T02:34:05.983Z,2.25
2022-10-28T02:36:37.843Z,2.25
2022-10-28T02:39:06.852Z,2.30
2022-10-28T02:41:39.167Z,2.13
2022-10-28T02:44:13.263Z,3.00
2022-10-28T02:46:44.211Z,2.70
2022-10-28T02:49:14.623Z,2.63
2022-10-28T02:51:46.906Z,2.38
2022-10-28T02:54:22.574Z,2.60
2022-10-28T02:57:15.058Z,2.70
2022-10-28T02:59:42.494Z,2.33
2022-10-28T03:02:10.217Z,2.78
2022-10-28T03:04:37.697Z,2.58
2022-10-28T03:07:05.091Z,3.15
2022-10-28T03:09:32.439Z,3.50
2022-10-28T03:11:59.860Z,2.80
2022-10-28T03:14:27.204Z,2.47
2022-10-28T03:16:54.496Z,2.70
2022-10-28T03:19:21.905Z,3.15
2022-10-28T03:21:49.213Z,3.03
2022-10-28T03:24:16.728Z,2.35
2022-10-28T03:26:44.035Z,2.95
2022-10-28T03:29:11.382Z,3.10
2022-10-28T03:31:38.751Z,3.03
2022-10-28T03:34:06.102Z,3.00
2022-10-28T03:36:33.478Z,2.67
2022-10-28T03:39:00.842Z,2.97
2022-10-28T03:41:28.175Z,3.13
2022-10-28T03:43:55.577Z,3.75
2022-10-28T03:46:22.871Z,2.75
2022-10-28T03:48:50.260Z,2.67
2022-10-28T03:51:17.939Z,3.28
2022-10-28T03:53:45.234Z,2.67
2022-10-28T03:56:12.974Z,3.22
2022-10-28T03:58:41.370Z,3.15
2022-10-28T04:01:09.018Z,2.67
2022-10-28T04:03:36.419Z,2.53
2022-10-28T04:06:03.754Z,3.22
2022-10-28T04:08:31.055Z,2.65
2022-10-28T04:10:58.467Z,3.92
2022-10-28T04:13:25.720Z,3.78
2022-10-28T04:15:53.092Z,4.78
2022-10-28T04:18:20.356Z,4.35
2022-10-28T04:20:47.733Z,4.22
2022-10-28T04:23:16.640Z,4.13
2022-10-28T04:25:44.329Z,4.18
2022-10-28T04:28:11.588Z,3.88
2022-10-28T04:30:38.912Z,4.88
2022-10-28T04:33:06.252Z,4.63
2022-10-28T04:35:33.551Z,4.18
2022-10-28T04:38:00.874Z,4.57
2022-10-28T04:40:28.179Z,4.60
2022-10-28T04:42:55.611Z,4.25
2022-10-28T04:45:23.189Z,4.13
2022-10-28T04:47:50.617Z,4.47
2022-10-28T04:50:17.965Z,3.90
2022-10-28T04:52:45.304Z,4.63
2022-10-28T04:55:12.617Z,4.03
2022-10-28T04:57:39.970Z,4.22
2022-10-28T05:00:07.902Z,4.05
2022-10-28T05:02:35.175Z,3.53
2022-10-28T05:05:04.706Z,3.17
2022-10-28T05:07:32.044Z,4.68
2022-10-28T05:09:59.442Z,4.38
2022-10-28T05:12:26.768Z,5.10
2022-10-28T05:14:54.024Z,5.03
2022-10-28T05:17:21.414Z,5.43
2022-10-28T05:19:48.716Z,4.55
2022-10-28T05:22:15.977Z,3.78
2022-10-28T05:24:43.245Z,3.95
2022-10-28T05:27:10.537Z,3.63
2022-10-28T05:29:37.795Z,4.45
2022-10-28T05:34:37.466Z,4.03
2022-10-28T05:37:04.685Z,4.78
2022-10-28T05:39:31.965Z,3.65
2022-10-28T05:41:59.248Z,3.65
2022-10-28T05:44:26.468Z,3.80
2022-10-28T05:46:54.346Z,4.15
2022-10-28T05:49:21.682Z,3.20
2022-10-28T05:51:49.014Z,3.63
2022-10-28T05:54:16.273Z,3.88
2022-10-28T05:56:43.563Z,2.58
2022-10-28T05:59:10.772Z,3.00
2022-10-28T06:01:39.098Z,2.90
2022-10-28T06:04:06.714Z,2.67
2022-10-28T06:06:34.164Z,3.53
2022-10-28T06:09:01.658Z,2.00
2022-10-28T06:11:27.621Z,2.78
2022-10-28T06:13:54.913Z,2.40
2022-10-28T06:16:22.136Z,1.75
2022-10-28T06:18:49.470Z,2.75
2022-10-28T06:21:16.912Z,2.17
2022-10-28T06:23:46.715Z,2.65
2022-10-28T06:26:14.092Z,1.98
2022-10-28T06:28:41.424Z,3.25
2022-10-28T06:31:08.682Z,1.77
2022-10-28T06:33:36.055Z,3.53
2022-10-28T06:36:04.087Z,2.63
2022-10-28T06:38:31.325Z,2.67
2022-10-28T06:40:58.946Z,2.38
2022-10-28T06:43:26.472Z,3.28
2022-10-28T06:45:55.793Z,2.70
2022-10-28T06:48:24.863Z,2.70
2022-10-28T06:50:54.520Z,2.38
2022-10-28T06:53:21.972Z,3.20
2022-10-28T06:55:53.681Z,2.72
2022-10-28T06:58:21.401Z,3.33
2022-10-28T07:00:49.015Z,2.40
2022-10-28T07:03:16.714Z,1.92
2022-10-28T07:05:44.033Z,1.80
2022-10-28T07:08:11.497Z,3.28
2022-10-28T07:10:38.923Z,2.40
2022-10-28T07:13:06.229Z,2.47
2022-10-28T07:15:33.645Z,2.47
2022-10-28T07:18:02.000Z,2.88
2022-10-28T07:20:32.144Z,2.35
2022-10-28T07:23:02.938Z,2.47
2022-10-28T07:25:31.844Z,2.80
2022-10-28T07:27:59.763Z,2.38
2022-10-28T07:30:28.580Z,3.50
2022-10-28T07:32:57.111Z,3.63
2022-10-28T07:35:24.857Z,2.75
2022-10-28T07:37:52.176Z,2.40
2022-10-28T07:40:21.044Z,2.42
2022-10-28T07:42:48.324Z,3.47
2022-10-28T07:45:16.148Z,2.50
2022-10-28T07:47:43.977Z,3.67
2022-10-28T07:50:20.045Z,3.53
2022-10-28T07:52:47.512Z,3.00
2022-10-28T07:55:14.838Z,3.00
2022-10-28T07:57:42.083Z,3.42
2022-10-28T08:00:10.088Z,3.53
2022-10-28T08:02:40.783Z,2.58
2022-10-28T08:05:08.555Z,2.97
2022-10-28T08:07:38.525Z,2.35
2022-10-28T08:10:07.108Z,2.72
2022-10-28T08:12:34.434Z,2.83
2022-10-28T08:15:02.768Z,2.40
2022-10-28T08:17:30.314Z,2.30
2022-10-28T08:19:57.741Z,2.72
2022-10-28T08:22:25.306Z,1.88
2022-10-28T08:24:52.866Z,2.53
2022-10-28T08:27:20.443Z,2.05
2022-10-28T08:29:48.023Z,3.45
2022-10-28T08:32:15.520Z,2.53
2022-10-28T08:34:43.769Z,3.17
2022-10-28T08:37:11.429Z,2.38
2022-10-28T08:39:38.943Z,2.67
2022-10-28T08:42:44.664Z,3.30
2022-10-28T08:45:21.408Z,2.50
2022-10-28T08:48:07.042Z,2.92
2022-10-28T08:50:50.582Z,2.45
2022-10-28T08:53:41.770Z,2.97
2022-10-28T08:56:18.502Z,3.42
2022-10-28T08:58:49.506Z,4.13
2022-10-28T09:01:22.103Z,3.22
2022-10-28T09:03:57.333Z,2.63
2022-10-28T09:06:24.677Z,2.60
2022-10-28T09:08:53.059Z,3.92
2022-10-28T09:11:45.350Z,3.33
2022-10-28T09:14:38.205Z,3.42
2022-10-28T09:17:44.476Z,3.03
2022-10-28T09:20:14.594Z,3.38
2022-10-28T09:22:54.043Z,2.90
2022-10-28T09:25:24.368Z,2.03
2022-10-28T09:28:14.647Z,1.80
2022-10-28T09:31:11.597Z,1.95
2022-10-28T09:33:45.029Z,2.25
2022-10-28T09:36:19.407Z,1.83
2022-10-28T09:38:47.374Z,2.28
2022-10-28T09:41:39.102Z,1.73
2022-10-28T09:44:43.637Z,1.50
2022-10-28T09:47:22.888Z,1.23
2022-10-28T09:49:54.201Z,0.75
2022-10-28T09:52:34.487Z,1.00
2022-10-28T09:55:09.444Z,0.70
2022-10-28T09:57:36.820Z,0.68
2022-10-28T10:00:04.913Z,0.70
2022-10-28T10:02:38.333Z,0.52
2022-10-28T10:05:18.814Z,0.52
2022-10-28T10:07:56.959Z,0.70
2022-10-28T10:10:28.434Z,0.50
2022-10-28T10:13:02.032Z,0.60
2022-10-28T10:15:39.137Z,0.60
2022-10-28T10:18:11.520Z,0.60
2022-10-28T10:20:48.143Z,1.10
2022-10-28T10:23:29.153Z,0.60
2022-10-28T10:26:11.188Z,0.50
2022-10-28T10:28:50.947Z,1.35
2022-10-28T10:31:29.923Z,0.50
2022-10-28T10:33:58.838Z,0.60
2022-10-28T10:36:31.685Z,0.55
2022-10-28T10:39:01.917Z,0.60
2022-10-28T10:41:36.338Z,0.50
2022-10-28T10:44:22.142Z,0.50
2022-10-28T10:46:55.772Z,0.70
2022-10-28T10:49:23.214Z,0.60
2022-10-28T10:51:57.298Z,0.90
2022-10-28T10:54:27.729Z,0.60
2022-10-28T10:56:55.394Z,0.50
2022-10-28T10:59:28.063Z,0.70
2022-10-28T11:01:58.002Z,0.57
2022-10-28T11:04:28.098Z,0.55
2022-10-28T11:06:57.594Z,0.90
2022-10-28T11:09:38.531Z,0.70
2022-10-28T11:12:27.715Z,0.70
2022-10-28T11:15:03.957Z,0.80
2022-10-28T11:20:31.230Z,0.77
2022-10-28T11:23:26.512Z,0.60
2022-10-28T11:28:31.247Z,0.60
2022-10-28T11:31:01.646Z,0.80
2022-10-28T11:33:46.280Z,0.68
2022-10-28T11:36:21.265Z,0.50
2022-10-28T11:39:23.507Z,0.50
2022-10-28T11:42:01.397Z,0.85
2022-10-28T11:44:48.198Z,0.60
2022-10-28T11:47:43.947Z,0.77
2022-10-28T11:50:49.485Z,0.47
2022-10-28T11:56:15.162Z,0.88
2022-10-28T11:59:20.293Z,0.70
2022-10-28T12:01:53.605Z,0.50
2022-10-28T12:04:42.445Z,0.70
2022-10-28T12:07:40.507Z,0.95
2022-10-28T12:10:45.354Z,0.75
2022-10-28T12:13:43.471Z,0.77
2022-10-28T12:16:37.296Z,1.05
2022-10-28T12:19:18.717Z,0.50
2022-10-28T12:22:08.839Z,0.63
2022-10-28T12:24:39.287Z,0.73
2022-10-28T12:27:21.698Z,0.90
2022-10-28T12:29:56.275Z,0.63
2022-10-28T12:32:29.771Z,1.60
2022-10-28T12:35:13.541Z,0.93
2022-10-28T12:37:46.161Z,0.73
2022-10-28T12:41:11.126Z,0.60
2022-10-28T12:43:54.713Z,0.82
2022-10-28T12:46:40.871Z,0.88
2022-10-28T12:49:37.026Z,1.00
2022-10-28T12:52:38.528Z,0.90
2022-10-28T12:58:02.678Z,0.73
2022-10-28T13:00:35.514Z,0.88
2022-10-28T13:03:11.393Z,0.98
2022-10-28T13:06:03.523Z,1.10
2022-10-28T13:08:33.862Z,0.93
2022-10-28T13:11:42.452Z,0.73
2022-10-28T13:14:44.387Z,0.60
2022-10-28T13:17:20.818Z,1.15
2022-10-28T13:19:54.196Z,0.90
2022-10-28T13:22:46.514Z,0.85
2022-10-28T13:25:19.745Z,1.08
2022-10-28T13:27:48.692Z,0.80
2022-10-28T13:30:22.130Z,0.75
2022-10-28T13:33:09.851Z,0.63
2022-10-28T13:35:37.577Z,1.00
2022-10-28T13:38:11.131Z,0.70
2022-10-28T13:40:38.491Z,0.73
2022-10-28T13:43:09.220Z,1.67
2022-10-28T13:45:53.327Z,0.50
2022-10-28T13:48:29.898Z,0.93
2022-10-28T13:51:09.449Z,0.98
2022-10-28T13:53:47.261Z,0.90
2022-10-28T13:56:44.077Z,0.68
2022-10-28T13:59:31.168Z,0.80
2022-10-28T14:02:33.730Z,0.60
2022-10-28T14:05:07.517Z,0.68
2022-10-28T14:07:37.237Z,0.70
2022-10-28T14:10:21.760Z,0.85
2022-10-28T14:13:06.353Z,0.50
2022-10-28T14:15:39.377Z,0.60
2022-10-28T14:21:05.139Z,0.57
2022-10-28T14:23:36.613Z,0.80
2022-10-28T14:26:05.969Z,0.77
2022-10-28T14:28:33.269Z,0.95
2022-10-28T14:31:12.475Z,1.40
2022-10-28T14:33:42.954Z,0.60
2022-10-28T14:36:19.575Z,0.98
2022-10-28T14:39:20.910Z,0.85
2022-10-28T14:42:06.808Z,1.00
2022-10-28T14:45:20.627Z,0.70
2022-10-28T14:48:02.072Z,0.50
2022-10-28T14:50:43.721Z,0.60
2022-10-28T14:53:29.036Z,0.70
2022-10-28T14:56:04.610Z,0.50
2022-10-28T14:58:41.156Z,0.70
2022-10-28T15:01:17.295Z,0.75
2022-10-28T15:03:51.461Z,0.80
2022-10-28T15:06:50.389Z,0.60
2022-10-28T15:09:33.012Z,0.60
2022-10-28T15:12:09.861Z,0.68
2022-10-28T15:14:40.596Z,0.68
2022-10-28T15:17:23.294Z,0.50
2022-10-28T15:19:53.221Z,0.55
2022-10-28T15:22:33.408Z,0.60
2022-10-28T15:25:13.021Z,0.50
2022-10-28T15:27:42.229Z,1.85
2022-10-28T15:30:20.868Z,0.98
2022-10-28T15:32:48.371Z,0.60
2022-10-28T15:35:30.930Z,0.60
2022-10-28T15:38:00.758Z,0.40
2022-10-28T15:40:33.156Z,0.80
2022-10-28T15:43:05.984Z,0.70
2022-10-28T15:45:41.338Z,0.70
2022-10-28T15:48:23.682Z,0.43
2022-10-28T15:51:23.719Z,0.55
2022-10-28T15:53:55.528Z,0.60
2022-10-28T15:56:27.079Z,0.40
2022-10-28T15:59:21.196Z,0.30
2022-10-28T16:01:48.537Z,0.40
2022-10-28T16:04:19.023Z,0.50
2022-10-28T16:06:46.746Z,0.40
2022-10-28T16:09:23.094Z,0.40
2022-10-28T16:11:57.641Z,0.47
2022-10-28T16:17:16.752Z,0.40
2022-10-28T16:19:57.376Z,0.70
2022-10-28T16:22:27.318Z,0.50
2022-10-28T16:24:55.274Z,0.50
2022-10-28T16:27:28.184Z,0.50
2022-10-28T16:29:55.605Z,0.50
2022-10-28T16:32:39.743Z,0.60
2022-10-28T16:35:19.640Z,0.60
2022-10-28T16:37:50.681Z,0.93
2022-10-28T16:43:17.144Z,0.50
2022-10-28T16:45:44.532Z,0.40
2022-10-28T16:48:14.033Z,0.50
2022-10-28T16:50:43.922Z,0.40
2022-10-28T16:53:13.151Z,0.50
2022-10-28T16:55:41.250Z,0.50
2022-10-28T16:58:08.996Z,0.50
2022-10-28T17:00:37.394Z,0.50
2022-10-28T17:03:05.036Z,0.60
2022-10-28T17:05:32.861Z,0.50
2022-10-28T17:08:01.108Z,0.55
2022-10-28T17:10:30.743Z,0.80
2022-10-28T17:12:58.268Z,1.20
2022-10-28T17:15:25.834Z,0.90
2022-10-28T17:17:53.613Z,0.63
2022-10-28T17:20:21.203Z,0.90
2022-10-28T17:22:48.770Z,1.20
2022-10-28T17:25:16.365Z,1.17
2022-10-28T17:27:48.458Z,1.00
2022-10-28T17:30:17.815Z,1.00
2022-10-28T17:32:49.290Z,1.20
2022-10-28T17:35:17.115Z,1.10
2022-10-28T17:37:44.645Z,0.80
2022-10-28T17:40:12.409Z,1.25
2022-10-28T17:42:40.056Z,0.90
2022-10-28T17:45:08.116Z,1.70
2022-10-28T17:47:35.712Z,0.90
2022-10-28T17:50:03.550Z,0.60
2022-10-28T17:52:35.625Z,0.65
2022-10-28T17:55:06.462Z,0.75
2022-10-28T17:57:33.960Z,0.80
2022-10-28T18:00:01.496Z,1.05
2022-10-28T18:02:40.447Z,0.77
2022-10-28T18:05:08.451Z,0.63
2022-10-28T18:07:36.015Z,0.73
2022-10-28T18:10:03.853Z,1.23
2022-10-28T18:12:31.462Z,0.70
2022-10-28T18:14:58.968Z,0.85
2022-10-28T18:17:26.493Z,0.98
2022-10-28T18:19:57.825Z,0.80
2022-10-28T18:24:58.015Z,0.82
2022-10-28T18:27:25.586Z,1.33
2022-10-28T18:29:53.120Z,0.90
2022-10-28T18:32:20.635Z,1.05
2022-10-28T18:34:48.227Z,0.98
2022-10-28T18:37:15.825Z,0.93
2022-10-28T18:39:43.488Z,0.70
2022-10-28T18:42:12.379Z,0.85
2022-10-28T18:44:41.543Z,0.60
2022-10-28T18:47:09.412Z,0.60
2022-10-28T18:49:37.260Z,0.70
2022-10-28T18:52:05.431Z,1.85
2022-10-28T18:54:34.381Z,0.75
2022-10-28T18:57:01.929Z,1.00
2022-10-28T18:59:29.935Z,0.85
2022-10-28T19:01:57.949Z,0.88
2022-10-28T19:04:25.985Z,0.80
2022-10-28T19:06:53.754Z,1.00
2022-10-28T19:09:21.578Z,0.93
2022-10-28T19:11:49.468Z,0.82
2022-10-28T19:14:17.482Z,0.85
2022-10-28T19:16:45.354Z,1.30
2022-10-28T19:19:13.096Z,1.13
2022-10-28T19:21:41.079Z,0.82
2022-10-28T19:24:09.090Z,0.70
2022-10-28T19:26:37.001Z,1.00
2022-10-28T19:29:05.800Z,0.85
2022-10-28T19:31:40.167Z,0.90
2022-10-28T19:34:08.332Z,1.30
2022-10-28T19:36:36.173Z,1.15
2022-10-28T19:39:04.219Z,1.33
2022-10-28T19:41:32.393Z,1.33
2022-10-28T19:44:02.288Z,1.30
2022-10-28T19:46:32.785Z,1.67
2022-10-28T19:49:03.369Z,1.77
2022-10-28T19:51:33.716Z,1.95
2022-10-28T19:54:05.136Z,1.73
2022-10-28T19:56:34.605Z,2.10
2022-10-28T19:59:03.933Z,2.83
2022-10-28T20:01:34.647Z,2.35
2022-10-28T20:04:02.974Z,3.05
2022-10-28T20:06:33.713Z,1.90
2022-10-28T20:09:02.191Z,3.15
2022-10-28T20:11:32.539Z,2.42
2022-10-28T20:14:05.984Z,2.28
2022-10-28T20:16:34.799Z,2.07
2022-10-28T20:19:03.343Z,1.83
2022-10-28T20:21:33.781Z,2.30
2022-10-28T20:24:01.916Z,2.00
2022-10-28T20:26:35.251Z,2.33
2022-10-28T20:29:03.599Z,2.45
2022-10-28T20:31:33.124Z,1.55
2022-10-28T20:34:04.006Z,1.40
2022-10-28T20:36:44.316Z,1.35
2022-10-28T20:39:17.423Z,1.40
2022-10-28T20:41:47.572Z,1.83
2022-10-28T20:44:16.348Z,2.10
2022-10-28T20:46:48.362Z,1.20
2022-10-28T20:49:16.504Z,1.20
2022-10-28T20:51:44.334Z,1.25
2022-10-28T20:54:16.874Z,1.27
2022-10-28T20:56:44.934Z,2.22
2022-10-28T20:59:15.555Z,1.95
2022-10-28T21:01:43.721Z,1.10
2022-10-28T21:04:11.741Z,0.95
2022-10-28T21:06:39.928Z,1.23
2022-10-28T21:09:09.070Z,1.20
2022-10-28T21:11:36.872Z,1.25
2022-10-28T21:14:04.547Z,0.95
2022-10-28T21:16:32.735Z,0.95
2022-10-28T21:19:00.979Z,1.45
2022-10-28T21:21:29.297Z,1.15
2022-10-28T21:23:57.178Z,1.80
2022-10-28T21:26:27.046Z,1.50
2022-10-28T21:28:56.694Z,1.67
2022-10-28T21:31:25.118Z,2.22
2022-10-28T21:33:53.824Z,1.42
2022-10-28T21:36:22.661Z,1.10
2022-10-28T21:38:55.186Z,1.23
2022-10-28T21:41:30.611Z,2.05
2022-10-28T21:43:58.923Z,0.93
2022-10-28T21:46:26.722Z,1.50
2022-10-28T21:48:54.899Z,1.63
2022-10-28T21:51:22.645Z,1.38
2022-10-28T21:53:50.664Z,1.38
2022-10-28T21:56:20.099Z,1.90
2022-10-28T21:58:49.414Z,1.50
2022-10-28T22:01:23.406Z,1.10
2022-10-28T22:03:54.779Z,1.42
2022-10-28T22:06:22.946Z,1.85
2022-10-28T22:08:56.188Z,1.40
2022-10-28T22:11:24.588Z,1.10
2022-10-28T22:13:58.472Z,1.10
2022-10-28T22:16:27.989Z,1.27
2022-10-28T22:18:57.620Z,1.30
2022-10-28T22:21:27.706Z,1.13
2022-10-28T22:23:55.757Z,1.75
2022-10-28T22:26:29.289Z,1.40
2022-10-28T22:28:57.590Z,1.55
2022-10-28T22:31:28.587Z,1.63
2022-10-28T22:33:57.296Z,1.42
2022-10-28T22:36:27.383Z,1.30
2022-10-28T22:38:55.222Z,1.25
2022-10-28T22:41:31.104Z,1.00
2022-10-28T22:44:00.686Z,1.27
2022-10-28T22:46:31.212Z,1.70
2022-10-28T22:48:59.214Z,1.90
2022-10-28T22:51:27.082Z,1.42
2022-10-28T22:53:55.055Z,1.67
2022-10-28T22:56:25.379Z,1.50
2022-10-28T22:58:55.840Z,1.58
2022-10-28T23:01:25.051Z,1.75
2022-10-28T23:03:54.366Z,1.40
2022-10-28T23:06:24.369Z,1.95
2022-10-28T23:08:52.646Z,1.20
2022-10-28T23:11:21.886Z,1.55
2022-10-28T23:13:54.082Z,0.82
2022-10-28T23:16:23.276Z,0.90
2022-10-28T23:18:53.117Z,1.25
2022-10-28T23:21:25.954Z,1.23
2022-10-28T23:23:59.159Z,0.95
2022-10-28T23:26:29.302Z,0.80
2022-10-28T23:28:58.997Z,0.80
2022-10-28T23:31:27.282Z,1.13
2022-10-28T23:33:55.808Z,0.90
2022-10-28T23:36:23.832Z,1.10
2022-10-28T23:38:52.709Z,1.13
2022-10-28T23:41:21.192Z,0.80
2022-10-28T23:43:49.666Z,0.90
2022-10-28T23:46:18.266Z,0.93
2022-10-28T23:48:46.230Z,1.02
2022-10-28T23:51:14.375Z,0.90
2022-10-28T23:53:42.276Z,1.30
2022-10-28T23:56:10.196Z,0.82
2022-10-28T23:58:37.893Z,0.95
